createdAt,value
2022-10-19T00:00:58.534Z,101603.59
2022-10-19T00:02:00.416Z,101598.35
2022-10-19T00:03:02.284Z,101602.61
2022-10-19T00:04:07.852Z,101590.47
2022-10-19T00:05:07.791Z,101593.89
2022-10-19T00:06:10.499Z,101586.05
2022-10-19T00:07:12.301Z,101583.38
2022-10-19T00:08:14.084Z,101584.20
2022-10-19T00:09:15.886Z,101585.84
2022-10-19T00:10:18.457Z,101578.87
2022-10-19T00:11:20.257Z,101581.40
2022-10-19T00:12:22.042Z,101578.76
2022-10-19T00:13:23.841Z,101569.22
2022-10-19T00:14:25.653Z,101568.32
2022-10-19T00:15:27.483Z,101569.14
2022-10-19T00:16:29.278Z,101556.15
2022-10-19T00:18:52.175Z,101566.50
2022-10-19T00:19:53.986Z,101556.97
2022-10-19T00:20:55.822Z,101563.04
2022-10-19T00:21:57.611Z,101556.93
2022-10-19T00:22:59.414Z,101554.29
2022-10-19T00:24:01.210Z,101555.98
2022-10-19T00:25:03.018Z,101552.52
2022-10-19T00:26:04.852Z,101555.94
2022-10-19T00:27:06.651Z,101554.20
2022-10-19T00:28:08.452Z,101548.97
2022-10-19T00:29:10.284Z,101546.33
2022-10-19T00:30:12.970Z,101548.02
2022-10-19T00:31:14.816Z,101548.02
2022-10-19T00:32:16.632Z,101547.11
2022-10-19T00:33:18.333Z,101550.54
2022-10-19T00:34:20.135Z,101542.70
2022-10-19T00:35:21.945Z,101540.96
2022-10-19T00:36:23.781Z,101540.92
2022-10-19T00:37:25.579Z,101537.38
2022-10-19T00:38:27.387Z,101534.78
2022-10-19T00:39:29.187Z,101537.34
2022-10-19T00:40:30.884Z,101529.50
2022-10-19T00:41:32.729Z,101533.83
2022-10-19T00:42:34.757Z,101526.03
2022-10-19T00:43:36.751Z,101524.30
2022-10-19T00:44:38.549Z,101524.30
2022-10-19T00:45:40.350Z,101535.52
2022-10-19T00:46:42.285Z,101523.44
2022-10-19T00:47:44.150Z,101519.06
2022-10-19T00:48:46.031Z,101519.94
2022-10-19T00:49:47.866Z,101518.24
2022-10-19T00:50:49.657Z,101516.52
2022-10-19T00:51:51.408Z,101514.78
2022-10-19T00:52:53.107Z,101500.05
2022-10-19T00:53:54.914Z,101508.72
2022-10-19T00:54:56.702Z,101512.19
2022-10-19T00:55:58.517Z,101509.59
2022-10-19T00:57:00.349Z,101506.98
2022-10-19T00:58:02.187Z,101511.31
2022-10-19T00:59:03.980Z,101500.92
2022-10-19T01:00:05.897Z,101506.12
2022-10-19T01:01:07.765Z,101504.39
2022-10-19T01:02:09.638Z,101502.70
2022-10-19T01:03:11.522Z,101501.80
2022-10-19T01:04:13.373Z,101497.50
2022-10-19T01:05:15.141Z,101494.90
2022-10-19T01:06:17.056Z,101494.04
2022-10-19T01:07:18.904Z,101488.84
2022-10-19T01:08:20.708Z,101499.23
2022-10-19T01:09:22.507Z,101487.14
2022-10-19T01:10:24.299Z,101486.32
2022-10-19T01:11:26.110Z,101491.52
2022-10-19T01:12:27.961Z,101485.45
2022-10-19T01:13:29.759Z,101488.95
2022-10-19T01:14:31.570Z,101485.45
2022-10-19T01:15:33.367Z,101477.70
2022-10-19T01:16:35.175Z,101477.70
2022-10-19T01:17:37.015Z,101476.83
2022-10-19T01:18:38.904Z,101475.11
2022-10-19T01:19:40.696Z,101469.91
2022-10-19T01:20:42.606Z,101469.04
2022-10-19T01:21:44.312Z,101462.11
2022-10-19T01:22:46.156Z,101464.71
2022-10-19T01:23:47.958Z,101464.71
2022-10-19T01:24:49.821Z,101460.42
2022-10-19T01:25:51.677Z,101456.92
2022-10-19T01:26:53.585Z,101460.37
2022-10-19T01:27:55.418Z,101457.78
2022-10-19T01:28:57.314Z,101454.28
2022-10-19T01:29:59.138Z,101454.28
2022-10-19T01:31:01.350Z,101453.45
2022-10-19T01:32:03.142Z,101451.72
2022-10-19T01:33:04.995Z,101450.02
2022-10-19T01:34:06.889Z,101449.12
2022-10-19T01:35:08.692Z,101450.02
2022-10-19T01:36:10.803Z,101448.30
2022-10-19T01:37:12.614Z,101445.70
2022-10-19T01:38:14.454Z,101440.46
2022-10-19T01:39:16.249Z,101441.29
2022-10-19T01:40:18.567Z,101440.42
2022-10-19T01:41:20.351Z,101436.95
2022-10-19T01:42:22.153Z,101441.25
2022-10-19T01:43:24.003Z,101436.05
2022-10-19T01:44:25.693Z,101430.81
2022-10-19T01:45:27.507Z,101429.09
2022-10-19T01:46:29.294Z,101431.64
2022-10-19T01:47:31.195Z,101434.20
2022-10-19T01:48:33.231Z,101424.67
2022-10-19T01:49:35.150Z,101425.50
2022-10-19T01:50:36.879Z,101429.83
2022-10-19T01:51:38.674Z,101433.26
2022-10-19T01:52:40.479Z,101429.75
2022-10-19T01:53:42.327Z,101426.25
2022-10-19T01:54:44.110Z,101429.70
2022-10-19T01:55:45.810Z,101429.67
2022-10-19T01:56:47.611Z,101422.70
2022-10-19T01:57:49.413Z,101419.23
2022-10-19T01:58:51.255Z,101419.23
2022-10-19T01:59:53.078Z,101418.30
2022-10-19T02:00:54.973Z,101420.03
2022-10-19T02:01:56.877Z,101417.43
2022-10-19T02:02:58.790Z,101413.92
2022-10-19T02:04:00.623Z,101413.02
2022-10-19T02:05:02.487Z,101411.29
2022-10-19T02:06:04.382Z,101418.18
2022-10-19T02:07:06.187Z,101411.17
2022-10-19T02:08:07.881Z,101419.04
2022-10-19T02:09:09.815Z,101419.87
2022-10-19T02:10:12.229Z,101413.77
2022-10-19T02:11:14.019Z,101409.44
2022-10-19T02:12:15.972Z,101412.03
2022-10-19T02:13:17.777Z,101411.13
2022-10-19T02:14:19.650Z,101411.09
2022-10-19T02:15:21.365Z,101410.22
2022-10-19T02:16:23.157Z,101411.05
2022-10-19T02:17:24.989Z,101410.19
2022-10-19T02:18:26.899Z,101409.28
2022-10-19T02:19:28.799Z,101414.52
2022-10-19T02:20:30.899Z,101407.55
2022-10-19T02:21:32.735Z,101414.47
2022-10-19T02:22:34.657Z,101410.97
2022-10-19T02:23:36.670Z,101412.70
2022-10-19T02:24:38.554Z,101414.43
2022-10-19T02:25:40.393Z,101412.66
2022-10-19T02:26:42.217Z,101413.48
2022-10-19T02:27:44.036Z,101410.02
2022-10-19T02:28:45.862Z,101409.16
2022-10-19T02:29:47.728Z,101405.61
2022-10-19T02:30:49.551Z,101401.28
2022-10-19T02:31:51.367Z,101402.11
2022-10-19T02:32:53.186Z,101397.74
2022-10-19T02:33:55.015Z,101400.30
2022-10-19T02:34:56.883Z,101402.85
2022-10-19T02:35:58.839Z,101396.80
2022-10-19T02:37:00.654Z,101403.72
2022-10-19T02:38:02.480Z,101395.84
2022-10-19T02:39:04.311Z,101401.04
2022-10-19T02:40:06.794Z,101399.30
2022-10-19T02:41:08.633Z,101400.13
2022-10-19T02:42:10.458Z,101394.07
2022-10-19T02:43:12.275Z,101396.63
2022-10-19T02:44:14.113Z,101399.18
2022-10-19T02:45:15.973Z,101399.18
2022-10-19T02:46:18.192Z,101399.97
2022-10-19T02:47:20.038Z,101394.77
2022-10-19T02:48:21.860Z,101395.59
2022-10-19T02:49:23.673Z,101394.69
2022-10-19T02:50:25.524Z,101399.02
2022-10-19T02:51:27.444Z,101395.47
2022-10-19T02:52:29.278Z,101394.60
2022-10-19T02:53:31.100Z,101392.83
2022-10-19T02:54:32.925Z,101394.56
2022-10-19T02:55:34.840Z,101394.52
2022-10-19T02:56:36.626Z,101385.87
2022-10-19T02:57:38.653Z,101391.02
2022-10-19T02:58:40.476Z,101388.42
2022-10-19T02:59:42.383Z,101392.63
2022-10-19T03:00:44.216Z,101385.67
2022-10-19T03:01:46.026Z,101384.77
2022-10-19T03:02:47.851Z,101389.08
2022-10-19T03:03:49.689Z,101389.04
2022-10-19T03:04:51.533Z,101383.85
2022-10-19T03:05:53.382Z,101388.09
2022-10-19T03:06:55.267Z,101377.72
2022-10-19T03:07:57.113Z,101389.78
2022-10-19T03:08:58.947Z,101379.40
2022-10-19T03:10:00.799Z,101380.22
2022-10-19T03:11:02.659Z,101378.48
2022-10-19T03:12:04.485Z,101372.35
2022-10-19T03:13:06.317Z,101372.35
2022-10-19T03:14:08.144Z,101372.31
2022-10-19T03:15:09.971Z,101383.55
2022-10-19T03:16:11.850Z,101379.19
2022-10-19T03:17:13.782Z,101380.05
2022-10-19T03:18:15.601Z,101386.10
2022-10-19T03:19:17.427Z,101374.82
2022-10-19T03:20:19.554Z,101380.01
2022-10-19T03:21:21.437Z,101378.27
2022-10-19T03:22:23.290Z,101368.72
2022-10-19T03:23:25.109Z,101375.59
2022-10-19T03:24:26.948Z,101370.36
2022-10-19T03:25:28.799Z,101368.59
2022-10-19T03:26:30.719Z,101368.59
2022-10-19T03:27:32.901Z,101364.23
2022-10-19T03:28:35.026Z,101361.59
2022-10-19T03:29:36.928Z,101361.59
2022-10-19T03:30:38.868Z,101358.95
2022-10-19T03:31:40.729Z,101356.31
2022-10-19T03:32:42.552Z,101357.18
2022-10-19T03:33:44.401Z,101354.59
2022-10-19T03:34:46.245Z,101359.73
2022-10-19T03:35:48.069Z,101351.08
2022-10-19T03:36:49.933Z,101347.62
2022-10-19T03:37:51.790Z,101355.40
2022-10-19T03:38:53.644Z,101350.17
2022-10-19T03:39:55.440Z,101351.91
2022-10-19T03:40:57.258Z,101344.12
2022-10-19T03:41:59.121Z,101344.08
2022-10-19T03:43:00.963Z,101342.34
2022-10-19T03:44:02.780Z,101344.89
2022-10-19T03:45:04.613Z,101333.62
2022-10-19T03:46:06.525Z,101341.36
2022-10-19T03:47:08.406Z,101332.70
2022-10-19T03:48:10.243Z,101333.53
2022-10-19T03:49:12.062Z,101339.62
2022-10-19T03:50:14.413Z,101336.98
2022-10-19T03:51:16.237Z,101337.80
2022-10-19T03:52:18.138Z,101333.44
2022-10-19T03:53:20.064Z,101335.16
2022-10-19T03:54:24.973Z,101335.95
2022-10-19T03:55:25.555Z,101328.98
2022-10-19T03:56:27.367Z,101328.98
2022-10-19T03:57:29.230Z,101329.84
2022-10-19T03:58:31.063Z,101328.08
2022-10-19T03:59:32.900Z,101327.25
2022-10-19T04:00:34.729Z,101319.43
2022-10-19T04:01:36.565Z,101322.02
2022-10-19T04:02:38.432Z,101319.39
2022-10-19T04:03:40.322Z,101320.20
2022-10-19T04:04:42.077Z,101313.30
2022-10-19T04:05:43.902Z,101315.89
2022-10-19T04:06:45.725Z,101316.75
2022-10-19T04:07:47.624Z,101314.16
2022-10-19T04:08:49.542Z,101315.80
2022-10-19T04:09:51.373Z,101310.62
2022-10-19T04:10:53.203Z,101306.29
2022-10-19T04:11:55.048Z,101297.56
2022-10-19T04:12:56.938Z,101304.47
2022-10-19T04:13:58.822Z,101304.47
2022-10-19T04:15:00.707Z,101303.61
2022-10-19T04:16:02.552Z,101297.52
2022-10-19T04:17:04.395Z,101297.56
2022-10-19T04:18:06.257Z,101294.11
2022-10-19T04:19:08.090Z,101300.11
2022-10-19T04:20:10.532Z,101291.47
2022-10-19T04:21:12.379Z,101292.34
2022-10-19T04:22:14.222Z,101293.20
2022-10-19T04:24:18.971Z,101289.66
2022-10-19T04:25:20.802Z,101284.47
2022-10-19T04:26:22.727Z,101282.78
2022-10-19T04:27:24.552Z,101288.83
2022-10-19T04:28:26.497Z,101287.11
2022-10-19T04:29:30.167Z,101280.19
2022-10-19T04:30:31.894Z,101274.14
2022-10-19T04:31:33.706Z,101287.11
2022-10-19T04:32:35.502Z,101286.28
2022-10-19T04:33:37.388Z,101278.46
2022-10-19T04:34:40.137Z,101278.50
2022-10-19T04:35:42.167Z,101281.09
2022-10-19T04:36:43.963Z,101282.82
2022-10-19T04:37:45.659Z,101280.23
2022-10-19T04:38:47.530Z,101277.64
2022-10-19T04:39:49.429Z,101274.14
2022-10-19T04:40:51.213Z,101269.86
2022-10-19T04:41:53.023Z,101275.95
2022-10-19T04:42:54.857Z,101273.36
2022-10-19T04:43:56.707Z,101270.77
2022-10-19T04:44:58.521Z,101265.62
2022-10-19T04:46:00.339Z,101271.72
2022-10-19T04:47:02.110Z,101271.72
2022-10-19T04:48:03.920Z,101266.58
2022-10-19T04:49:05.766Z,101268.31
2022-10-19T04:50:07.795Z,101268.34
2022-10-19T04:51:09.595Z,101269.22
2022-10-19T04:52:11.395Z,101264.03
2022-10-19T04:53:13.264Z,101267.56
2022-10-19T04:54:15.067Z,101264.97
2022-10-19T04:55:16.949Z,101259.79
2022-10-19T04:56:19.774Z,101265.02
2022-10-19T04:57:21.489Z,101257.28
2022-10-19T04:58:23.295Z,101259.05
2022-10-19T04:59:25.025Z,101263.42
2022-10-19T05:00:26.719Z,101261.73
2022-10-19T05:01:28.521Z,101263.50
2022-10-19T05:02:30.310Z,101260.95
2022-10-19T05:03:32.173Z,101254.94
2022-10-19T05:04:34.002Z,101257.58
2022-10-19T05:05:35.801Z,101255.02
2022-10-19T05:06:37.596Z,101255.89
2022-10-19T05:07:39.396Z,101256.83
2022-10-19T05:08:41.235Z,101253.46
2022-10-19T05:09:43.050Z,101256.09
2022-10-19T05:10:47.608Z,101248.43
2022-10-19T05:11:48.611Z,101243.28
2022-10-19T05:12:50.405Z,101241.63
2022-10-19T05:13:52.217Z,101243.44
2022-10-19T05:14:54.069Z,101239.16
2022-10-19T05:15:55.866Z,101246.16
2022-10-19T05:16:58.379Z,101234.95
2022-10-19T05:18:00.185Z,101234.20
2022-10-19T05:19:02.007Z,101243.80
2022-10-19T05:20:05.271Z,101239.59
2022-10-19T05:21:07.064Z,101241.43
2022-10-19T05:22:08.863Z,101235.48
2022-10-19T05:23:10.664Z,101236.43
2022-10-19T05:24:12.469Z,101237.41
2022-10-19T05:25:14.323Z,101239.25
2022-10-19T05:26:16.303Z,101233.34
2022-10-19T05:27:18.226Z,101236.05
2022-10-19T05:28:20.034Z,101241.39
2022-10-19T05:29:21.825Z,101238.03
2022-10-19T05:30:23.681Z,101233.85
2022-10-19T05:31:25.484Z,101228.77
2022-10-19T05:32:27.280Z,101232.36
2022-10-19T05:33:29.090Z,101232.50
2022-10-19T05:34:30.880Z,101231.77
2022-10-19T05:35:32.728Z,101230.14
2022-10-19T05:36:34.791Z,101225.91
2022-10-19T05:37:37.017Z,101231.22
2022-10-19T05:38:39.061Z,101229.61
2022-10-19T05:39:40.894Z,101215.84
2022-10-19T05:40:42.757Z,101226.37
2022-10-19T05:41:44.654Z,101218.67
2022-10-19T05:42:46.355Z,101213.56
2022-10-19T05:43:48.149Z,101212.80
2022-10-19T05:44:49.941Z,101214.62
2022-10-19T05:45:51.789Z,101213.84
2022-10-19T05:46:53.597Z,101211.37
2022-10-19T05:47:55.390Z,101216.66
2022-10-19T05:48:57.190Z,101218.55
2022-10-19T05:49:58.891Z,101211.69
2022-10-19T05:51:00.758Z,101210.91
2022-10-19T05:52:02.575Z,101211.03
2022-10-19T05:53:04.363Z,101212.02
2022-10-19T05:54:06.178Z,101205.99
2022-10-19T05:55:07.975Z,101203.47
2022-10-19T05:56:10.529Z,101205.29
2022-10-19T05:57:12.485Z,101203.63
2022-10-19T05:58:14.288Z,101197.64
2022-10-19T05:59:16.095Z,101203.80
2022-10-19T06:00:18.302Z,101199.54
2022-10-19T06:01:20.206Z,101201.35
2022-10-19T06:02:22.005Z,101197.06
2022-10-19T06:03:23.806Z,101192.77
2022-10-19T06:04:25.610Z,101196.32
2022-10-19T06:05:27.441Z,101192.92
2022-10-19T06:06:29.656Z,101185.16
2022-10-19T06:07:31.573Z,101186.08
2022-10-19T06:08:33.616Z,101173.10
2022-10-19T06:09:35.423Z,101177.52
2022-10-19T06:10:37.341Z,101174.95
2022-10-19T06:11:39.253Z,101173.23
2022-10-19T06:12:41.142Z,101165.47
2022-10-19T06:13:42.951Z,101163.80
2022-10-19T06:14:47.759Z,101160.34
2022-10-19T06:15:48.388Z,101151.71
2022-10-19T06:16:50.270Z,101159.57
2022-10-19T06:17:52.077Z,101149.19
2022-10-19T06:18:53.882Z,101154.42
2022-10-19T06:19:55.695Z,101150.16
2022-10-19T06:20:57.511Z,101149.30
2022-10-19T06:21:59.376Z,101143.27
2022-10-19T06:23:01.176Z,101138.09
2022-10-19T06:24:02.891Z,101145.08
2022-10-19T06:25:04.699Z,101137.30
2022-10-19T06:26:06.821Z,101136.46
2022-10-19T06:27:08.741Z,101133.89
2022-10-19T06:28:10.803Z,101133.06
2022-10-19T06:29:12.608Z,101132.22
2022-10-19T06:30:14.705Z,101130.50
2022-10-19T06:31:16.465Z,101126.20
2022-10-19T06:32:18.303Z,101126.22
2022-10-19T06:33:20.135Z,101121.02
2022-10-19T06:34:21.982Z,101126.25
2022-10-19T06:35:23.779Z,101122.78
2022-10-19T06:36:25.599Z,101117.58
2022-10-19T06:37:27.443Z,101119.35
2022-10-19T06:38:29.254Z,101115.94
2022-10-19T06:39:31.049Z,101117.67
2022-10-19T06:40:32.936Z,101104.69
2022-10-19T06:41:34.712Z,101108.18
2022-10-19T06:42:36.578Z,101110.80
2022-10-19T06:43:38.488Z,101108.21
2022-10-19T06:44:40.323Z,101109.98
2022-10-19T06:45:42.203Z,101109.11
2022-10-19T06:46:44.118Z,101109.13
2022-10-19T06:48:47.789Z,101105.70
2022-10-19T06:49:49.610Z,101103.98
2022-10-19T06:50:51.467Z,101096.18
2022-10-19T06:51:53.354Z,101094.47
2022-10-19T06:52:55.231Z,101093.63
2022-10-19T06:53:57.603Z,101092.75
2022-10-19T06:54:59.645Z,101096.27
2022-10-19T06:56:01.492Z,101094.53
2022-10-19T06:57:03.326Z,101099.77
2022-10-19T06:58:05.203Z,101096.30
2022-10-19T06:59:09.286Z,101095.44
2022-10-19T07:00:11.961Z,101092.84
2022-10-19T07:01:13.864Z,101091.99
2022-10-19T07:02:15.746Z,101092.88
2022-10-19T07:03:17.639Z,101094.63
2022-10-19T07:04:19.466Z,101087.68
2022-10-19T07:05:21.295Z,101086.83
2022-10-19T07:06:23.231Z,101092.92
2022-10-19T07:07:25.086Z,101085.09
2022-10-19T07:08:26.974Z,101090.33
2022-10-19T07:09:28.798Z,101080.79
2022-10-19T07:10:30.604Z,101080.80
2022-10-19T07:11:32.453Z,101082.56
2022-10-19T07:12:34.314Z,101077.36
2022-10-19T07:13:36.189Z,101072.16
2022-10-19T07:14:38.383Z,101074.77
2022-10-19T07:15:40.216Z,101073.87
2022-10-19T07:16:42.064Z,101073.89
2022-10-19T07:17:43.901Z,101075.65
2022-10-19T07:18:45.786Z,101073.91
2022-10-19T07:19:47.610Z,101071.32
2022-10-19T07:20:49.438Z,101067.84
2022-10-19T07:21:51.293Z,101073.09
2022-10-19T07:22:53.114Z,101064.41
2022-10-19T07:23:55.077Z,101067.88
2022-10-19T07:24:56.917Z,101063.54
2022-10-19T07:25:58.752Z,101063.54
2022-10-19T07:27:00.577Z,101056.62
2022-10-19T07:28:02.401Z,101055.73
2022-10-19T07:29:04.278Z,101054.88
2022-10-19T07:30:06.448Z,101047.95
2022-10-19T07:31:08.286Z,101048.83
2022-10-19T07:32:10.117Z,101043.61
2022-10-19T07:33:11.987Z,101042.77
2022-10-19T07:34:13.879Z,101041.88
2022-10-19T07:35:15.706Z,101035.82
2022-10-19T07:36:18.546Z,101030.59
2022-10-19T07:37:20.382Z,101023.63
2022-10-19T07:38:22.224Z,101028.00
2022-10-19T07:39:24.131Z,101031.48
2022-10-19T07:40:25.958Z,101027.17
2022-10-19T07:41:27.794Z,101027.17
2022-10-19T07:42:29.636Z,101020.20
2022-10-19T07:43:31.593Z,101026.33
2022-10-19T07:44:35.282Z,101023.77
2022-10-19T07:45:37.657Z,101025.50
2022-10-19T07:46:39.484Z,101029.87
2022-10-19T07:47:41.329Z,101029.02
2022-10-19T07:48:43.183Z,101019.43
2022-10-19T07:49:45.065Z,101019.45
2022-10-19T07:50:47.005Z,101018.59
2022-10-19T07:51:48.832Z,101018.59
2022-10-19T07:52:50.657Z,101015.09
2022-10-19T07:53:52.512Z,101015.99
2022-10-19T07:54:54.396Z,101005.55
2022-10-19T07:55:56.246Z,101003.80
2022-10-19T07:56:58.079Z,100999.44
2022-10-19T07:57:59.923Z,100999.45
2022-10-19T07:59:01.764Z,101002.07
2022-10-19T08:00:03.661Z,100997.73
2022-10-19T08:01:05.595Z,101001.22
2022-10-19T08:02:07.467Z,100996.00
2022-10-19T08:03:57.156Z,100998.62
2022-10-19T08:04:49.037Z,100996.87
2022-10-19T08:05:17.356Z,100996.02
2022-10-19T08:06:21.003Z,100990.79
2022-10-19T08:07:22.840Z,100986.42
2022-10-19T08:08:24.703Z,100994.27
2022-10-19T08:10:30.193Z,100980.35
2022-10-19T08:11:32.022Z,100980.35
2022-10-19T08:12:34.096Z,100975.13
2022-10-19T08:13:36.092Z,100983.87
2022-10-19T08:14:37.947Z,100979.52
2022-10-19T08:15:39.833Z,100977.77
2022-10-19T08:16:41.867Z,100978.66
2022-10-19T08:17:43.716Z,100974.30
2022-10-19T08:18:45.575Z,100971.69
2022-10-19T08:19:47.405Z,100966.47
2022-10-19T08:20:49.710Z,100967.34
2022-10-19T08:21:51.530Z,100956.88
2022-10-19T08:22:56.464Z,100959.50
2022-10-19T08:23:57.002Z,100953.42
2022-10-19T08:24:58.855Z,100954.28
2022-10-19T08:26:00.736Z,100955.17
2022-10-19T08:27:02.577Z,100954.29
2022-10-19T08:28:04.437Z,100945.59
2022-10-19T08:29:06.257Z,100949.97
2022-10-19T08:30:08.811Z,100947.36
2022-10-19T08:31:10.720Z,100942.14
2022-10-19T08:32:14.266Z,100947.36
2022-10-19T08:33:16.079Z,100943.00
2022-10-19T08:34:17.907Z,100949.13
2022-10-19T08:35:19.754Z,100949.98
2022-10-19T08:36:21.752Z,100945.63
2022-10-19T08:37:40.138Z,100952.61
2022-10-19T08:38:27.232Z,100955.23
2022-10-19T08:39:29.058Z,100947.39
2022-10-19T08:40:30.954Z,100950.88
2022-10-19T08:41:32.877Z,100943.03
2022-10-19T08:42:34.921Z,100936.95
2022-10-19T08:43:37.038Z,100935.20
2022-10-19T08:44:38.874Z,100930.88
2022-10-19T08:46:43.627Z,100926.50
2022-10-19T08:47:46.993Z,100930.88
2022-10-19T08:48:48.824Z,100921.28
2022-10-19T08:49:50.657Z,100923.90
2022-10-19T08:50:52.523Z,100922.17
2022-10-19T08:51:54.435Z,100925.66
2022-10-19T08:52:56.270Z,100923.04
2022-10-19T08:53:58.092Z,100911.72
2022-10-19T08:54:59.881Z,100910.83
2022-10-19T08:56:03.778Z,100916.95
2022-10-19T08:57:05.392Z,100908.22
2022-10-19T08:58:07.189Z,100907.36
2022-10-19T08:59:08.991Z,100908.22
2022-10-19T09:00:11.632Z,100910.84
2022-10-19T09:01:13.440Z,100901.27
2022-10-19T09:02:15.333Z,100903.03
2022-10-19T09:03:23.070Z,100902.14
2022-10-19T09:04:20.930Z,100907.37
2022-10-19T09:05:22.735Z,100902.14
2022-10-19T09:06:24.537Z,100902.14
2022-10-19T09:07:26.415Z,100901.27
2022-10-19T09:08:28.279Z,100891.67
2022-10-19T09:09:30.045Z,100892.56
2022-10-19T09:10:31.847Z,100889.95
2022-10-19T09:11:33.651Z,100889.95
2022-10-19T09:12:35.738Z,100896.94
2022-10-19T09:13:41.691Z,100883.86
2022-10-19T09:14:41.488Z,100885.61
2022-10-19T09:15:43.285Z,100886.47
2022-10-19T09:16:44.990Z,100881.23
2022-10-19T09:17:46.864Z,100878.66
2022-10-19T09:18:48.956Z,100876.03
2022-10-19T09:19:50.776Z,100872.52
2022-10-19T09:20:52.673Z,100862.95
2022-10-19T09:21:54.524Z,100862.05
2022-10-19T09:22:56.393Z,100867.28
2022-10-19T09:23:58.252Z,100856.81
2022-10-19T09:25:00.052Z,100856.81
2022-10-19T09:26:01.856Z,100860.32
2022-10-19T09:27:03.716Z,100855.95
2022-10-19T09:28:05.587Z,100855.95
2022-10-19T09:29:07.401Z,100856.80
2022-10-19T09:30:09.521Z,100850.70
2022-10-19T09:31:11.315Z,100847.23
2022-10-19T09:32:13.131Z,100841.09
2022-10-19T09:33:15.482Z,100848.95
2022-10-19T09:34:17.809Z,100846.33
2022-10-19T09:35:19.615Z,100835.00
2022-10-19T09:36:22.824Z,100841.98
2022-10-19T09:37:26.772Z,100837.61
2022-10-19T09:38:28.990Z,100833.23
2022-10-19T09:39:30.793Z,100828.03
2022-10-19T09:40:32.613Z,100826.27
2022-10-19T09:41:34.431Z,100830.65
2022-10-19T09:42:36.466Z,100828.03
2022-10-19T09:43:38.806Z,100830.64
2022-10-19T09:44:40.638Z,100822.80
2022-10-19T09:45:43.427Z,100821.90
2022-10-19T09:47:46.999Z,100826.27
2022-10-19T09:48:48.859Z,100826.27
2022-10-19T09:49:51.195Z,100824.50
2022-10-19T09:50:52.974Z,100819.27
2022-10-19T09:51:54.771Z,100814.03
2022-10-19T09:52:56.582Z,100814.93
2022-10-19T09:53:58.461Z,100812.30
2022-10-19T09:55:00.220Z,100808.80
2022-10-19T09:56:02.006Z,100799.22
2022-10-19T09:57:03.798Z,100800.94
2022-10-19T09:58:05.606Z,100800.94
2022-10-19T09:59:07.706Z,100792.22
2022-10-19T10:00:10.022Z,100790.46
2022-10-19T10:01:11.831Z,100790.45
2022-10-19T10:02:13.640Z,100792.22
2022-10-19T10:03:15.438Z,100792.20
2022-10-19T10:04:17.296Z,100789.59
2022-10-19T10:05:20.084Z,100789.59
2022-10-19T10:06:21.993Z,100787.83
2022-10-19T10:07:23.812Z,100793.06
2022-10-19T10:08:25.751Z,100784.34
2022-10-19T10:09:27.816Z,100782.58
2022-10-19T10:10:30.569Z,100790.42
2022-10-19T10:11:32.542Z,100783.47
2022-10-19T10:12:34.563Z,100791.31
2022-10-19T10:13:36.587Z,100787.83
2022-10-19T10:14:38.372Z,100779.98
2022-10-19T10:15:40.194Z,100776.46
2022-10-19T10:16:42.003Z,100775.59
2022-10-19T10:17:43.793Z,100781.69
2022-10-19T10:18:45.587Z,100775.58
2022-10-19T10:19:47.448Z,100779.05
2022-10-19T10:20:51.151Z,100777.33
2022-10-19T10:21:53.023Z,100777.33
2022-10-19T10:22:54.810Z,100775.55
2022-10-19T10:23:56.636Z,100770.32
2022-10-19T10:24:58.536Z,100768.56
2022-10-19T10:26:00.325Z,100763.31
2022-10-19T10:27:02.129Z,100766.83
2022-10-19T10:28:03.913Z,100760.69
2022-10-19T10:29:05.620Z,100761.58
2022-10-19T10:30:08.187Z,100762.44
2022-10-19T10:31:10.170Z,100752.83
2022-10-19T10:32:11.986Z,100748.48
2022-10-19T10:33:26.906Z,100754.58
2022-10-19T10:34:36.412Z,100759.80
2022-10-19T10:35:21.103Z,100750.19
2022-10-19T10:36:23.387Z,100752.81
2022-10-19T10:37:25.194Z,100748.48
2022-10-19T10:38:26.979Z,100742.34
2022-10-19T10:39:28.800Z,100750.19
2022-10-19T10:40:30.662Z,100741.48
2022-10-19T10:41:32.461Z,100749.33
2022-10-19T10:42:34.622Z,100741.48
2022-10-19T10:43:36.664Z,100741.48
2022-10-19T10:44:38.461Z,100738.86
2022-10-19T10:45:40.317Z,100735.37
2022-10-19T10:46:42.217Z,100736.23
2022-10-19T10:47:44.013Z,100742.32
2022-10-19T10:48:47.663Z,100736.22
2022-10-19T10:49:49.469Z,100735.35
2022-10-19T10:50:51.318Z,100738.83
2022-10-19T10:51:53.294Z,100730.98
2022-10-19T10:52:55.116Z,100733.59
2022-10-19T10:53:56.925Z,100737.98
2022-10-19T10:54:58.768Z,100721.37
2022-10-19T10:56:00.657Z,100724.00
2022-10-19T10:57:04.430Z,100729.23
2022-10-19T10:58:06.073Z,100721.37
2022-10-19T10:59:08.000Z,100726.62
2022-10-19T11:00:10.484Z,100721.39
2022-10-19T11:01:12.344Z,100717.03
2022-10-19T11:02:14.290Z,100719.66
2022-10-19T11:03:16.264Z,100717.88
2022-10-19T11:04:18.061Z,100702.17
2022-10-19T11:05:19.867Z,100711.78
2022-10-19T11:06:21.931Z,100708.30
2022-10-19T11:07:23.840Z,100707.42
2022-10-19T11:08:25.730Z,100699.56
2022-10-19T11:09:27.605Z,100696.09
2022-10-19T11:10:29.449Z,100695.19
2022-10-19T11:11:31.322Z,100695.19
2022-10-19T11:12:35.118Z,100703.04
2022-10-19T11:13:36.803Z,100696.08
2022-10-19T11:14:38.650Z,100685.60
2022-10-19T11:15:40.473Z,100692.59
2022-10-19T11:16:42.362Z,100685.59
2022-10-19T11:17:44.186Z,100683.83
2022-10-19T11:18:46.033Z,100689.06
2022-10-19T11:19:47.893Z,100682.09
2022-10-19T11:20:49.831Z,100682.09
2022-10-19T11:21:51.737Z,100682.09
2022-10-19T11:22:53.781Z,100684.70
2022-10-19T11:23:55.598Z,100682.08
2022-10-19T11:24:57.444Z,100672.47
2022-10-19T11:25:59.303Z,100684.69
2022-10-19T11:27:01.183Z,100672.45
2022-10-19T11:28:03.030Z,100669.84
2022-10-19T11:29:04.877Z,100674.20
2022-10-19T11:30:07.220Z,100675.92
2022-10-19T11:31:09.074Z,100675.05
2022-10-19T11:32:10.983Z,100655.88
2022-10-19T11:33:12.813Z,100655.88
2022-10-19T11:34:16.159Z,100656.72
2022-10-19T11:35:18.209Z,100662.81
2022-10-19T11:36:20.151Z,100650.61
2022-10-19T11:37:22.027Z,100658.47
2022-10-19T11:38:27.551Z,100645.38
2022-10-19T11:39:27.661Z,100647.99
2022-10-19T11:40:29.547Z,100643.61
2022-10-19T11:41:31.412Z,100642.75
2022-10-19T11:42:33.304Z,100645.38
2022-10-19T11:43:35.154Z,100649.73
2022-10-19T11:44:36.990Z,100651.53
2022-10-19T11:45:38.809Z,100641.91
2022-10-19T11:46:40.634Z,100645.40
2022-10-19T11:47:42.537Z,100647.09
2022-10-19T11:48:44.396Z,100647.97
2022-10-19T11:49:46.208Z,100649.69
2022-10-19T11:50:53.941Z,100640.08
2022-10-19T11:51:51.684Z,100641.81
2022-10-19T11:52:53.567Z,100640.08
2022-10-19T11:53:55.482Z,100635.72